Time;durP1;ratioP1;P1;durP2;ratioP2;P2;SDS_P1;SDS_P2;PMS_P1;PMS_P2;Temp;Humidity;BMP_temperature;BMP_pressure;BME280_temperature;BME280_humidity;BME280_pressure;Samples;Min_cycle;Max_cycle;Signal;HPM_P1;HPM_P2
2022/11/26 00:00:51;;;;;;;10.90;7.90;;;4.80;99.90;;;;;;6176755;28;20477;-61
2022/11/26 00:03:55;;;;;;;9.10;8.20;;;4.80;99.90;;;;;;6178699;28;20457;-61
2022/11/26 00:07:00;;;;;;;12.30;8.80;;;4.80;99.90;;;;;;6180711;28;20779;-61
2022/11/26 00:10:08;;;;;;;10.93;8.80;;;4.70;99.90;;;;;;6180308;28;20489;-61
2022/11/26 00:13:16;;;;;;;9.97;8.97;;;4.70;99.90;;;;;;6180614;28;20965;-61
2022/11/26 00:16:20;;;;;;;9.77;8.57;;;4.60;99.90;;;;;;6180367;28;21008;-61
2022/11/26 00:19:23;;;;;;;8.33;7.00;;;4.60;99.90;;;;;;6180476;28;20558;-61
2022/11/26 00:22:31;;;;;;;9.50;8.50;;;4.70;99.90;;;;;;6180493;28;20476;-61
2022/11/26 00:25:41;;;;;;;10.73;8.60;;;4.70;99.90;;;;;;6180847;28;20478;-61
2022/11/26 00:28:50;;;;;;;9.80;8.40;;;4.70;99.90;;;;;;6180123;28;20974;-61
2022/11/26 00:31:53;;;;;;;9.10;7.50;;;4.70;99.90;;;;;;6180151;28;20489;-61
2022/11/26 00:34:56;;;;;;;11.80;8.03;;;4.60;99.90;;;;;;6179819;28;21017;-61
2022/11/26 00:38:01;;;;;;;7.97;7.27;;;4.60;99.90;;;;;;6181564;28;20486;-64
2022/11/26 00:41:04;;;;;;;10.43;8.33;;;4.50;99.90;;;;;;6173538;28;20489;-63
2022/11/26 00:44:16;;;;;;;8.40;7.40;;;4.50;99.90;;;;;;6202373;28;20487;-63
2022/11/26 00:47:19;;;;;;;11.47;8.73;;;4.60;99.90;;;;;;6188831;28;20481;-62
2022/11/26 00:50:25;;;;;;;8.60;7.47;;;4.50;99.90;;;;;;6179587;28;20497;-63
2022/11/26 00:53:29;;;;;;;12.00;9.17;;;4.50;99.90;;;;;;6179493;28;20511;-63
2022/11/26 00:56:33;;;;;;;9.07;7.10;;;4.50;99.90;;;;;;6199918;28;20473;-63
2022/11/26 00:59:40;;;;;;;9.47;7.63;;;4.50;99.90;;;;;;6203514;28;20487;-63
2022/11/26 01:02:43;;;;;;;9.60;7.83;;;4.50;99.90;;;;;;6204102;28;20469;-62
2022/11/26 01:05:50;;;;;;;8.77;7.87;;;4.40;99.90;;;;;;6202906;28;20483;-62
2022/11/26 01:08:54;;;;;;;9.43;7.13;;;4.40;99.90;;;;;;6181526;28;20473;-62
2022/11/26 01:11:58;;;;;;;9.43;8.00;;;4.50;99.90;;;;;;6179944;28;20474;-61
2022/11/26 01:15:01;;;;;;;8.63;7.87;;;4.50;99.90;;;;;;6181379;28;20504;-62
2022/11/26 01:18:11;;;;;;;10.67;6.93;;;4.50;99.90;;;;;;6201816;28;20520;-63
2022/11/26 01:21:15;;;;;;;10.43;6.80;;;4.50;99.90;;;;;;6182476;28;20474;-62
2022/11/26 01:24:20;;;;;;;9.07;8.17;;;4.50;99.90;;;;;;6180716;28;20478;-62
2022/11/26 01:27:23;;;;;;;8.30;7.50;;;4.50;99.90;;;;;;6183628;28;20477;-61
2022/11/26 01:30:29;;;;;;;9.33;7.40;;;4.50;99.90;;;;;;6178731;28;20572;-62
2022/11/26 01:33:32;;;;;;;9.10;6.47;;;4.50;99.90;;;;;;6178541;28;20826;-62
2022/11/26 01:36:38;;;;;;;8.90;6.47;;;4.40;99.90;;;;;;6178513;28;20473;-62
2022/11/26 01:39:42;;;;;;;6.47;5.87;;;4.40;99.90;;;;;;6157279;28;20471;-62
2022/11/26 01:42:51;;;;;;;8.70;6.60;;;4.40;99.90;;;;;;6153563;28;20845;-62
2022/11/26 01:45:54;;;;;;;7.40;6.67;;;4.40;99.90;;;;;;6153341;28;20514;-62
2022/11/26 01:49:16;;;;;;;10.10;5.63;;;4.40;99.90;;;;;;6153785;28;20470;-62
2022/11/26 01:52:23;;;;;;;7.63;5.80;;;4.40;99.90;;;;;;6169838;28;20462;-62
2022/11/26 01:55:34;;;;;;;6.03;5.33;;;4.40;99.90;;;;;;6177653;28;20536;-62
2022/11/26 01:58:42;;;;;;;7.43;6.83;;;4.40;99.90;;;;;;6177484;28;20483;-62
2022/11/26 02:01:45;;;;;;;8.53;7.73;;;4.40;99.90;;;;;;6177569;28;20482;-62
2022/11/26 02:05:00;;;;;;;7.30;6.43;;;4.30;99.90;;;;;;6177521;28;20818;-62
2022/11/26 02:08:04;;;;;;;7.07;6.23;;;4.20;99.90;;;;;;6177019;28;20478;-62
2022/11/26 02:11:17;;;;;;;7.00;6.30;;;4.20;99.90;;;;;;6177244;28;20482;-62
2022/11/26 02:14:23;;;;;;;8.07;6.60;;;4.20;99.90;;;;;;6177254;28;20466;-62
2022/11/26 02:17:34;;;;;;;7.37;5.87;;;4.30;99.90;;;;;;6181562;28;20540;-62
2022/11/26 02:20:51;;;;;;;7.40;5.60;;;4.30;99.90;;;;;;6177800;28;20474;-62
2022/11/26 02:24:27;;;;;;;7.20;6.13;;;4.30;99.90;;;;;;6175996;28;20490;-62
2022/11/26 02:27:55;;;;;;;6.60;5.97;;;4.30;99.90;;;;;;6173586;28;20474;-62
2022/11/26 02:31:09;;;;;;;7.53;6.73;;;4.30;99.90;;;;;;6175647;28;20845;-62
2022/11/26 02:34:18;;;;;;;10.07;5.93;;;4.30;99.90;;;;;;6199239;28;20907;-63
2022/11/26 02:37:25;;;;;;;6.13;5.53;;;4.30;99.90;;;;;;6199647;28;20469;-61
2022/11/26 02:40:29;;;;;;;6.13;5.53;;;4.30;99.90;;;;;;6196686;28;20488;-62
2022/11/26 02:43:34;;;;;;;7.30;5.83;;;4.30;99.90;;;;;;6199947;28;20465;-61
2022/11/26 02:46:40;;;;;;;6.13;5.53;;;4.20;99.90;;;;;;6205432;28;20468;-62
2022/11/26 02:49:46;;;;;;;5.50;5.00;;;4.20;99.90;;;;;;6211606;28;20477;-62
2022/11/26 02:52:53;;;;;;;6.83;5.67;;;4.20;99.90;;;;;;6208426;28;20480;-61
2022/11/26 02:56:03;;;;;;;5.53;5.10;;;4.20;99.90;;;;;;6199835;28;20480;-61
2022/11/26 02:59:07;;;;;;;7.70;7.00;;;4.30;99.90;;;;;;6199759;28;20484;-62
2022/11/26 03:02:15;;;;;;;6.13;5.17;;;4.30;99.90;;;;;;6197474;28;20844;-61
2022/11/26 03:05:19;;;;;;;6.53;5.80;;;4.20;99.90;;;;;;6199421;28;20496;-61
2022/11/26 03:08:24;;;;;;;9.03;6.20;;;4.10;99.90;;;;;;6199511;28;20484;-61
2022/11/26 03:11:27;;;;;;;5.57;5.10;;;4.10;99.90;;;;;;6200499;28;20516;-61
2022/11/26 03:14:30;;;;;;;5.80;5.30;;;4.20;99.90;;;;;;6209532;28;20532;-61
2022/11/26 03:17:34;;;;;;;7.90;5.77;;;4.30;99.90;;;;;;6200417;28;20469;-61
2022/11/26 03:20:37;;;;;;;8.40;6.03;;;4.40;99.90;;;;;;6200587;28;20484;-61
2022/11/26 03:23:41;;;;;;;6.10;5.37;;;4.40;99.90;;;;;;6200151;28;20964;-61
2022/11/26 03:26:44;;;;;;;6.47;5.87;;;4.40;99.90;;;;;;6202011;28;20473;-61
2022/11/26 03:29:47;;;;;;;5.17;4.70;;;4.50;99.90;;;;;;6225261;28;20505;-61
2022/11/26 03:32:51;;;;;;;4.93;4.43;;;4.40;99.90;;;;;;6214823;28;20566;-61
2022/11/26 03:35:54;;;;;;;7.20;4.70;;;4.50;99.90;;;;;;6206668;28;20484;-61
2022/11/26 03:38:58;;;;;;;5.10;4.50;;;4.50;99.90;;;;;;6202691;28;20477;-61
2022/11/26 03:42:01;;;;;;;6.00;4.60;;;4.50;99.90;;;;;;6184832;28;21021;-61
2022/11/26 03:45:05;;;;;;;5.13;4.70;;;4.60;99.90;;;;;;6178279;28;20500;-62
2022/11/26 03:48:09;;;;;;;5.87;5.27;;;4.60;99.90;;;;;;6179152;28;20474;-62
2022/11/26 03:51:12;;;;;;;10.00;4.90;;;4.70;99.90;;;;;;6178614;28;20568;-63
2022/11/26 03:54:15;;;;;;;4.90;4.43;;;4.70;99.90;;;;;;6170558;28;20540;-62
2022/11/26 03:57:19;;;;;;;10.70;5.33;;;4.70;99.90;;;;;;6180236;28;20516;-62
2022/11/26 04:00:22;;;;;;;6.17;4.50;;;4.80;99.90;;;;;;6180332;28;20525;-62
2022/11/26 04:03:27;;;;;;;6.40;4.37;;;4.80;99.90;;;;;;6180472;28;20473;-62
2022/11/26 04:06:30;;;;;;;6.00;5.20;;;4.70;99.90;;;;;;6179156;28;20489;-62
2022/11/26 04:09:33;;;;;;;5.97;4.70;;;4.80;99.90;;;;;;6179234;28;20478;-62
2022/11/26 04:12:36;;;;;;;5.30;4.80;;;4.80;99.90;;;;;;6180211;28;20958;-62
2022/11/26 04:15:40;;;;;;;7.00;4.50;;;4.70;99.90;;;;;;6179863;28;20482;-62
2022/11/26 04:18:44;;;;;;;7.30;4.73;;;4.80;99.90;;;;;;6179590;28;20478;-62
2022/11/26 04:21:47;;;;;;;5.87;4.67;;;4.80;99.90;;;;;;6179538;28;20806;-62
2022/11/26 04:24:50;;;;;;;4.03;3.73;;;4.80;99.90;;;;;;6179295;28;20477;-62
2022/11/26 04:27:53;;;;;;;7.93;4.67;;;4.80;99.90;;;;;;6179687;28;20913;-62
2022/11/26 04:30:57;;;;;;;5.30;4.20;;;4.90;99.90;;;;;;6179344;28;20929;-62
2022/11/26 04:34:01;;;;;;;5.13;4.63;;;4.90;99.90;;;;;;6179474;28;20771;-62
2022/11/26 04:37:04;;;;;;;4.07;3.70;;;4.90;99.90;;;;;;6179618;28;20441;-62
2022/11/26 04:40:08;;;;;;;5.10;4.60;;;4.90;99.90;;;;;;6155185;28;20462;-62
2022/11/26 04:43:12;;;;;;;7.13;4.37;;;4.90;99.90;;;;;;6155547;28;20466;-62
2022/11/26 04:46:15;;;;;;;5.07;4.57;;;4.80;99.90;;;;;;6155488;28;20914;-62
2022/11/26 04:49:19;;;;;;;5.03;4.40;;;4.80;99.90;;;;;;6154358;28;20465;-62
2022/11/26 04:52:22;;;;;;;5.00;4.30;;;4.80;99.90;;;;;;6154609;28;20489;-62
2022/11/26 04:55:25;;;;;;;7.00;5.60;;;4.90;99.90;;;;;;6151167;28;20489;-62
2022/11/26 04:58:28;;;;;;;6.47;5.17;;;4.90;99.90;;;;;;6154918;28;20780;-62
2022/11/26 05:01:32;;;;;;;6.20;5.67;;;4.90;99.90;;;;;;6155265;28;20479;-62
2022/11/26 05:04:36;;;;;;;7.33;6.17;;;4.80;99.90;;;;;;6154543;28;20549;-62
2022/11/26 05:07:40;;;;;;;8.20;5.13;;;4.80;99.90;;;;;;6154683;28;20494;-62
2022/11/26 05:10:43;;;;;;;10.40;7.10;;;4.80;99.90;;;;;;6174807;28;20486;-61
2022/11/26 05:13:46;;;;;;;9.43;7.60;;;4.70;99.90;;;;;;6178443;28;20478;-61
2022/11/26 05:16:49;;;;;;;8.43;7.53;;;4.60;99.90;;;;;;6178513;28;20551;-61
2022/11/26 05:19:54;;;;;;;13.17;8.80;;;4.60;99.90;;;;;;6178420;28;20486;-61
2022/11/26 05:22:57;;;;;;;11.07;9.27;;;4.60;99.90;;;;;;6178085;28;20491;-61
2022/11/26 05:26:00;;;;;;;9.23;8.37;;;4.60;99.90;;;;;;6178269;28;20478;-61
2022/11/26 05:29:03;;;;;;;11.17;9.47;;;4.50;99.90;;;;;;6177820;28;20958;-61
2022/11/26 05:32:06;;;;;;;12.40;9.83;;;4.50;99.90;;;;;;6178055;28;20576;-62
2022/11/26 05:35:11;;;;;;;11.10;8.30;;;4.40;99.90;;;;;;6177848;28;20502;-62
2022/11/26 05:38:14;;;;;;;10.60;7.53;;;4.40;99.90;;;;;;6177899;28;20977;-61
2022/11/26 05:41:17;;;;;;;7.97;7.13;;;4.40;99.90;;;;;;6177595;28;20959;-62
2022/11/26 05:44:20;;;;;;;16.73;7.10;;;4.40;99.90;;;;;;6177794;28;20945;-62
2022/11/26 05:47:24;;;;;;;9.33;7.43;;;4.30;99.90;;;;;;6178029;28;20474;-62
2022/11/26 05:50:28;;;;;;;8.27;6.70;;;4.20;99.90;;;;;;6177268;28;20532;-61
2022/11/26 05:53:31;;;;;;;8.00;6.73;;;4.20;99.90;;;;;;6177810;28;20478;-62
2022/11/26 05:56:34;;;;;;;12.77;8.63;;;4.30;99.90;;;;;;6177260;28;20482;-62
2022/11/26 05:59:37;;;;;;;8.70;7.90;;;4.40;99.90;;;;;;6177475;28;20493;-62
2022/11/26 06:02:41;;;;;;;11.90;7.93;;;4.40;99.90;;;;;;6177225;28;20469;-62
2022/11/26 06:05:45;;;;;;;13.10;9.80;;;4.40;99.90;;;;;;6177185;28;20474;-62
2022/11/26 06:08:49;;;;;;;10.97;8.20;;;4.40;99.90;;;;;;6176025;28;20486;-62
2022/11/26 06:11:52;;;;;;;12.80;10.67;;;4.40;99.90;;;;;;6177420;28;20473;-62
2022/11/26 06:14:55;;;;;;;13.23;9.10;;;4.40;99.90;;;;;;6177064;28;20533;-61
2022/11/26 06:17:58;;;;;;;10.03;9.10;;;4.50;99.90;;;;;;6177186;28;20482;-61
2022/11/26 06:21:05;;;;;;;11.27;9.77;;;4.50;99.90;;;;;;6176794;28;20489;-61
2022/11/26 06:24:08;;;;;;;11.90;10.67;;;4.60;99.90;;;;;;6176834;28;20934;-61
2022/11/26 06:27:11;;;;;;;10.57;9.47;;;4.50;99.90;;;;;;6177106;28;20474;-62
2022/11/26 06:30:15;;;;;;;12.13;10.30;;;4.50;99.90;;;;;;6176617;28;20486;-61
2022/11/26 06:33:18;;;;;;;10.63;9.13;;;4.50;99.90;;;;;;6176601;28;20477;-60
2022/11/26 06:36:23;;;;;;;10.50;9.50;;;4.50;99.90;;;;;;6176292;28;20481;-60
2022/11/26 06:39:26;;;;;;;12.97;9.47;;;4.50;99.90;;;;;;6176720;28;20482;-60
2022/11/26 06:42:29;;;;;;;11.93;9.23;;;4.50;99.90;;;;;;6174348;28;20473;-60
2022/11/26 06:45:34;;;;;;;12.10;9.20;;;4.60;99.90;;;;;;6176682;28;20520;-61
2022/11/26 06:48:38;;;;;;;9.03;7.80;;;4.70;99.90;;;;;;6173885;28;20821;-61
2022/11/26 06:51:42;;;;;;;11.20;9.63;;;4.80;99.90;;;;;;6177223;28;20489;-61
2022/11/26 06:54:46;;;;;;;10.10;9.10;;;4.80;99.90;;;;;;6177827;28;20470;-62
2022/11/26 06:57:51;;;;;;;10.20;9.20;;;4.80;99.90;;;;;;6177441;28;20473;-61
2022/11/26 07:00:54;;;;;;;9.90;8.90;;;4.90;99.90;;;;;;6176427;28;20477;-61
2022/11/26 07:03:58;;;;;;;11.63;10.43;;;5.10;99.90;;;;;;6174764;28;20454;-61
2022/11/26 07:07:02;;;;;;;11.33;9.90;;;5.10;99.90;;;;;;6176887;28;20458;-61
2022/11/26 07:10:06;;;;;;;15.00;11.77;;;5.30;99.90;;;;;;6176487;28;20933;-61
2022/11/26 07:13:09;;;;;;;11.57;9.57;;;5.30;99.90;;;;;;6177626;28;20468;-62
2022/11/26 07:16:13;;;;;;;10.70;9.80;;;5.40;99.90;;;;;;6182120;28;20969;-61
2022/11/26 07:19:16;;;;;;;12.20;10.90;;;5.50;99.90;;;;;;6182105;28;20473;-61
2022/11/26 07:22:21;;;;;;;12.87;11.07;;;5.50;99.90;;;;;;6181834;28;20477;-62
2022/11/26 07:25:24;;;;;;;11.90;10.67;;;5.60;99.90;;;;;;6182057;28;20473;-61
2022/11/26 07:28:28;;;;;;;15.20;11.40;;;5.70;99.90;;;;;;6181283;28;20469;-61
2022/11/26 07:31:31;;;;;;;17.07;10.83;;;5.80;99.90;;;;;;6181268;28;20540;-62
2022/11/26 07:34:34;;;;;;;12.10;9.97;;;5.90;99.90;;;;;;6181161;28;20538;-62
2022/11/26 07:37:39;;;;;;;15.67;10.10;;;6.00;99.90;;;;;;6180859;28;20991;-62
2022/11/26 07:40:42;;;;;;;11.07;9.97;;;6.10;99.90;;;;;;6180984;28;20474;-62
2022/11/26 07:43:46;;;;;;;14.50;10.10;;;6.10;99.90;;;;;;6180982;28;20477;-62
2022/11/26 07:46:49;;;;;;;13.80;10.73;;;6.20;99.90;;;;;;6181172;28;20473;-62
2022/11/26 07:49:52;;;;;;;11.60;10.00;;;6.20;99.90;;;;;;6181682;28;20486;-62
2022/11/26 07:52:57;;;;;;;11.83;10.07;;;6.30;99.90;;;;;;6181433;28;20473;-62
2022/11/26 07:56:03;;;;;;;10.97;9.90;;;6.40;99.90;;;;;;6180915;28;20481;-62
2022/11/26 07:59:06;;;;;;;14.07;9.87;;;6.50;99.90;;;;;;6181609;28;20486;-62
2022/11/26 08:02:13;;;;;;;11.57;9.57;;;6.70;99.90;;;;;;6180340;28;20481;-60
2022/11/26 08:05:17;;;;;;;11.50;10.33;;;6.90;99.90;;;;;;6180470;28;20488;-60
2022/11/26 08:08:21;;;;;;;11.43;10.10;;;7.10;99.90;;;;;;6180369;28;20500;-60
2022/11/26 08:11:26;;;;;;;11.03;9.77;;;7.30;99.90;;;;;;6180194;28;20474;-60
2022/11/26 08:14:29;;;;;;;11.00;9.00;;;7.50;99.90;;;;;;6182131;28;20473;-61
2022/11/26 08:17:32;;;;;;;9.13;8.17;;;7.80;99.90;;;;;;6182929;28;20973;-61
2022/11/26 08:20:35;;;;;;;13.13;8.17;;;8.00;99.90;;;;;;6180257;28;20481;-61
2022/11/26 08:23:40;;;;;;;8.57;7.77;;;8.10;99.90;;;;;;6180170;28;20789;-61
2022/11/26 08:26:44;;;;;;;8.40;7.50;;;8.30;99.90;;;;;;6180698;28;20481;-60
2022/11/26 08:29:47;;;;;;;8.23;7.43;;;8.50;99.90;;;;;;6180242;28;20492;-61
2022/11/26 08:32:50;;;;;;;8.30;7.30;;;8.80;99.90;;;;;;6179529;28;20478;-62
2022/11/26 08:35:54;;;;;;;8.40;7.60;;;9.00;99.90;;;;;;6179651;28;20489;-62
2022/11/26 08:39:13;;;;;;;8.73;7.37;;;9.20;99.90;;;;;;6179058;28;20548;-61
2022/11/26 08:42:16;;;;;;;9.47;7.53;;;9.50;99.90;;;;;;6179867;28;20477;-62
2022/11/26 08:45:19;;;;;;;10.23;9.13;;;9.70;99.90;;;;;;6179263;28;20981;-62
2022/11/26 08:48:24;;;;;;;8.83;8.00;;;9.80;99.90;;;;;;6179721;28;20484;-62
2022/11/26 08:51:33;;;;;;;8.53;7.57;;;9.90;99.90;;;;;;6179522;28;20541;-61
2022/11/26 08:54:38;;;;;;;7.97;5.97;;;9.90;99.90;;;;;;6179798;28;20488;-61
2022/11/26 08:57:47;;;;;;;10.10;7.30;;;9.90;99.90;;;;;;6179933;28;20966;-62
2022/11/26 09:00:50;;;;;;;8.73;7.20;;;10.00;99.90;;;;;;6179156;28;20474;-62
2022/11/26 09:03:55;;;;;;;12.73;8.03;;;10.10;99.90;;;;;;6179216;28;20442;-61
2022/11/26 09:06:58;;;;;;;7.57;6.70;;;10.20;99.90;;;;;;6179717;28;20469;-61
2022/11/26 09:10:03;;;;;;;9.07;7.80;;;10.30;99.50;;;;;;6170475;28;20497;-62
2022/11/26 09:13:06;;;;;;;8.30;7.60;;;10.50;99.40;;;;;;6178881;28;20469;-63
2022/11/26 09:16:09;;;;;;;12.17;7.53;;;10.60;99.00;;;;;;6179178;28;20765;-61
2022/11/26 09:19:14;;;;;;;9.40;7.63;;;10.80;99.00;;;;;;6178713;28;20811;-62
2022/11/26 09:22:17;;;;;;;8.60;7.10;;;10.90;98.50;;;;;;6179006;28;20474;-63
2022/11/26 09:25:22;;;;;;;9.57;8.60;;;11.00;98.10;;;;;;6178592;28;20954;-62
2022/11/26 09:28:25;;;;;;;11.40;7.53;;;11.30;98.10;;;;;;6178691;28;20982;-62
2022/11/26 09:31:28;;;;;;;8.37;7.17;;;11.60;97.40;;;;;;6178451;28;20480;-61
2022/11/26 09:34:31;;;;;;;8.60;7.87;;;11.80;97.10;;;;;;6178167;28;20520;-62
2022/11/26 09:37:35;;;;;;;8.77;7.00;;;12.00;96.20;;;;;;6177509;28;20946;-62
2022/11/26 09:40:49;;;;;;;12.00;8.97;;;12.00;95.70;;;;;;6178124;28;20488;-62
2022/11/26 09:44:21;;;;;;;10.03;8.07;;;12.00;96.00;;;;;;6178014;28;20486;-62
2022/11/26 09:47:27;;;;;;;11.63;9.73;;;12.20;96.10;;;;;;6177785;28;20481;-61
2022/11/26 09:50:34;;;;;;;10.47;9.40;;;12.40;95.40;;;;;;6177398;28;20482;-63
2022/11/26 09:53:42;;;;;;;14.17;10.43;;;12.60;95.30;;;;;;6177230;28;20469;-62
2022/11/26 09:56:50;;;;;;;10.70;9.80;;;12.90;94.80;;;;;;6177669;28;20818;-61
2022/11/26 09:59:55;;;;;;;9.67;8.77;;;13.00;94.60;;;;;;6177568;28;20492;-62
2022/11/26 10:02:59;;;;;;;11.80;9.00;;;13.10;94.10;;;;;;6178170;28;20474;-62
2022/11/26 10:06:07;;;;;;;9.90;8.90;;;13.40;93.90;;;;;;6177880;28;20477;-62
2022/11/26 10:09:29;;;;;;;10.63;8.90;;;13.40;93.20;;;;;;6176831;28;20497;-61
2022/11/26 10:12:48;;;;;;;11.97;8.57;;;13.50;92.40;;;;;;6177520;28;20486;-62
2022/11/26 10:16:21;;;;;;;16.70;9.47;;;13.50;92.20;;;;;;6176965;28;20553;-63
2022/11/26 10:19:31;;;;;;;11.77;9.50;;;13.60;92.20;;;;;;6177449;28;20474;-62
2022/11/26 10:22:39;;;;;;;9.90;9.10;;;13.40;92.10;;;;;;6177125;28;20808;-63
2022/11/26 10:25:46;;;;;;;9.63;8.70;;;13.30;91.90;;;;;;6177686;28;20532;-62
2022/11/26 10:28:56;;;;;;;10.73;9.57;;;13.30;91.80;;;;;;6177858;28;20489;-61
2022/11/26 10:32:05;;;;;;;13.93;9.70;;;13.20;92.00;;;;;;6177735;28;20544;-62
2022/11/26 10:35:15;;;;;;;12.20;9.70;;;13.20;92.20;;;;;;6177711;28;20482;-62
2022/11/26 10:38:18;;;;;;;11.30;8.63;;;13.40;92.10;;;;;;6177341;28;20489;-62
2022/11/26 10:41:23;;;;;;;15.03;11.10;;;13.60;91.20;;;;;;6177206;28;20500;-62
2022/11/26 10:44:38;;;;;;;10.90;9.90;;;13.90;91.10;;;;;;6177684;28;20477;-62
2022/11/26 10:47:42;;;;;;;11.57;10.07;;;14.20;90.50;;;;;;6178184;28;20586;-62
2022/11/26 10:50:59;;;;;;;11.83;9.97;;;14.40;90.10;;;;;;6178708;28;20506;-61
2022/11/26 10:54:06;;;;;;;15.37;12.30;;;14.60;89.80;;;;;;6177189;28;20482;-62
2022/11/26 10:57:14;;;;;;;13.97;12.47;;;15.00;88.60;;;;;;6176942;28;20477;-61
2022/11/26 11:00:40;;;;;;;32.30;23.97;;;15.40;86.50;;;;;;6177055;28;20489;-61
2022/11/26 11:03:50;;;;;;;13.60;12.20;;;16.20;81.70;;;;;;6176914;28;20477;-60
2022/11/26 11:07:29;;;;;;;10.53;9.53;;;16.70;79.20;;;;;;6177023;28;20491;-61
2022/11/26 11:10:33;;;;;;;10.63;9.80;;;16.40;78.70;;;;;;6176860;28;20955;-61
2022/11/26 11:13:41;;;;;;;10.20;9.20;;;16.00;76.90;;;;;;6177311;28;20478;-61
2022/11/26 11:16:45;;;;;;;11.70;9.23;;;15.60;77.80;;;;;;6177064;28;20589;-61
2022/11/26 11:19:49;;;;;;;10.30;8.40;;;15.20;78.90;;;;;;6163842;28;20496;-61
2022/11/26 11:23:00;;;;;;;9.37;7.80;;;14.90;82.00;;;;;;6176432;28;20478;-62
2022/11/26 11:26:05;;;;;;;8.90;8.07;;;15.70;79.70;;;;;;6177488;28;20473;-63
2022/11/26 11:29:25;;;;;;;10.40;9.10;;;17.30;74.80;;;;;;6177233;28;20477;-63
2022/11/26 11:32:34;;;;;;;10.87;9.77;;;18.00;71.60;;;;;;6176886;28;20943;-62
2022/11/26 11:35:37;;;;;;;11.40;9.77;;;19.20;69.30;;;;;;6176671;28;20490;-62
2022/11/26 11:38:47;;;;;;;10.67;9.70;;;21.50;59.10;;;;;;6176450;28;20284;-62
2022/11/26 11:41:50;;;;;;;11.10;10.10;;;21.60;53.90;;;;;;6176272;28;20525;-62
2022/11/26 11:44:54;;;;;;;11.33;10.30;;;21.80;52.50;;;;;;6176459;28;20230;-62
2022/11/26 11:48:04;;;;;;;10.50;9.40;;;22.40;51.10;;;;;;6176064;28;20686;-62
2022/11/26 11:51:16;;;;;;;11.17;10.17;;;23.40;48.40;;;;;;6176224;28;20242;-63
2022/11/26 11:54:23;;;;;;;12.70;11.53;;;25.10;46.10;;;;;;6176294;28;20241;-62
2022/11/26 11:57:48;;;;;;;35.57;31.43;;;25.70;41.20;;;;;;6176051;28;20242;-62
2022/11/26 12:00:55;;;;;;;12.93;11.60;;;24.30;39.70;;;;;;6178972;28;20749;-62
2022/11/26 12:04:34;;;;;;;12.23;10.20;;;23.00;41.70;;;;;;6180281;28;20647;-62
2022/11/26 12:07:39;;;;;;;9.33;8.50;;;21.50;43.70;;;;;;6167193;28;20230;-62
2022/11/26 12:10:53;;;;;;;8.70;7.90;;;20.10;45.90;;;;;;6179914;28;20313;-63
2022/11/26 12:14:01;;;;;;;9.47;8.43;;;18.90;47.90;;;;;;6180222;28;20679;-62
2022/11/26 12:17:10;;;;;;;11.40;10.03;;;18.00;50.10;;;;;;6180158;28;20238;-62
2022/11/26 12:20:22;;;;;;;11.57;8.87;;;17.70;52.60;;;;;;6180024;28;20558;-62
2022/11/26 12:23:32;;;;;;;9.57;8.67;;;18.10;52.40;;;;;;6180501;28;20469;-62
2022/11/26 12:26:39;;;;;;;10.83;9.83;;;17.90;52.20;;;;;;6203751;28;20481;-62
2022/11/26 12:29:47;;;;;;;9.90;8.93;;;17.20;53.30;;;;;;6203770;28;20484;-62
2022/11/26 12:32:54;;;;;;;10.10;9.20;;;16.90;54.90;;;;;;6203886;28;20476;-62
2022/11/26 12:36:06;;;;;;;16.10;10.67;;;16.50;56.00;;;;;;6203739;28;20914;-63
2022/11/26 12:39:17;;;;;;;11.83;10.60;;;16.20;57.30;;;;;;6198249;28;20510;-62
2022/11/26 12:42:28;;;;;;;9.40;8.50;;;16.50;59.70;;;;;;6179946;28;20484;-62
2022/11/26 12:45:41;;;;;;;9.70;8.70;;;18.20;55.00;;;;;;6179659;28;20529;-62
2022/11/26 12:48:54;;;;;;;11.83;8.80;;;18.20;53.10;;;;;;6179368;28;20513;-63
2022/11/26 12:52:11;;;;;;;10.40;9.40;;;17.70;54.00;;;;;;6179446;28;20466;-63
2022/11/26 12:55:20;;;;;;;13.00;8.80;;;17.20;55.10;;;;;;6179279;28;20478;-61
2022/11/26 12:58:35;;;;;;;21.90;15.30;;;16.60;56.30;;;;;;6179631;28;20470;-62
2022/11/26 13:01:41;;;;;;;34.60;20.40;;;15.80;57.80;;;;;;6179538;28;20474;-62
2022/11/26 13:04:44;;;;;;;76.83;41.00;;;15.10;59.50;;;;;;6179830;28;20816;-62
2022/11/26 13:08:13;;;;;;;62.33;32.67;;;14.70;61.40;;;;;;6181727;28;20850;-63
2022/11/26 13:11:31;;;;;;;12.60;8.23;;;14.40;63.30;;;;;;6179309;28;20493;-62
2022/11/26 13:14:44;;;;;;;9.17;7.37;;;14.00;64.40;;;;;;6181091;28;20970;-63
2022/11/26 13:17:49;;;;;;;7.73;7.00;;;13.60;65.80;;;;;;6184274;28;20477;-64
2022/11/26 13:21:10;;;;;;;12.97;7.73;;;13.50;66.90;;;;;;6201949;28;20792;-61
2022/11/26 13:24:39;;;;;;;10.13;8.20;;;13.20;69.30;;;;;;6181817;28;20894;-63
2022/11/26 13:27:59;;;;;;;10.63;9.50;;;12.80;71.70;;;;;;6167234;28;20546;-64
2022/11/26 13:31:17;;;;;;;10.43;9.53;;;13.60;72.20;;;;;;6183408;28;20960;-63
2022/11/26 13:34:33;;;;;;;10.23;9.23;;;14.10;71.00;;;;;;6201269;28;20481;-62
2022/11/26 13:38:03;;;;;;;10.13;9.13;;;14.20;69.30;;;;;;6201271;28;20957;-63
2022/11/26 13:41:22;;;;;;;10.07;8.10;;;14.80;69.40;;;;;;6179613;28;20477;-62
2022/11/26 13:44:55;;;;;;;31.40;21.37;;;15.20;66.10;;;;;;6176612;28;20473;-64
2022/11/26 13:48:05;;;;;;;17.47;13.20;;;14.70;66.50;;;;;;6176767;28;20954;-62
2022/11/26 13:51:14;;;;;;;31.47;23.40;;;14.20;68.30;;;;;;6176471;28;20485;-62
2022/11/26 13:54:23;;;;;;;22.47;16.70;;;13.80;70.20;;;;;;6176703;28;20976;-63
2022/11/26 13:57:35;;;;;;;38.03;24.70;;;13.60;73.80;;;;;;6177118;28;20482;-66
2022/11/26 14:00:38;;;;;;;20.97;14.70;;;15.20;70.90;;;;;;6177068;28;20597;-65
2022/11/26 14:03:46;;;;;;;50.13;30.87;;;16.10;65.10;;;;;;6176015;28;20501;-63
2022/11/26 14:07:19;;;;;;;51.17;28.10;;;16.60;64.30;;;;;;6176037;28;20481;-64
2022/11/26 14:10:43;;;;;;;39.27;22.90;;;17.00;61.80;;;;;;6080974;28;1146055;-62
2022/11/26 14:14:22;;;;;;;28.27;17.00;;;16.80;60.00;;;;;;6153092;28;20841;-62
2022/11/26 14:17:26;;;;;;;45.60;28.33;;;16.20;60.70;;;;;;6152786;28;21006;-64
2022/11/26 14:21:13;;;;;;;78.43;43.00;;;15.80;61.70;;;;;;6153540;28;20986;-63
2022/11/26 14:25:02;;;;;;;43.40;27.27;;;15.20;63.20;;;;;;6180385;28;20481;-63
2022/11/26 14:28:10;;;;;;;22.23;15.20;;;14.60;65.50;;;;;;6158515;28;20475;-64
2022/11/26 14:31:21;;;;;;;31.13;21.20;;;14.10;67.70;;;;;;6176748;28;20465;-62
2022/11/26 14:34:31;;;;;;;17.73;11.47;;;13.70;69.60;;;;;;6176006;28;20478;-61
2022/11/26 14:37:34;;;;;;;10.67;8.43;;;13.40;71.20;;;;;;6178163;28;20493;-63
2022/11/26 14:40:58;;;;;;;22.50;16.97;;;13.10;72.40;;;;;;6177500;28;20500;-65
2022/11/26 14:44:07;;;;;;;17.43;14.53;;;12.80;74.40;;;;;;6177068;28;20481;-64
2022/11/26 14:47:18;;;;;;;21.30;18.43;;;12.40;76.70;;;;;;6176569;28;20477;-64
2022/11/26 14:50:25;;;;;;;10.20;7.83;;;12.10;77.80;;;;;;6176523;28;20598;-64
2022/11/26 14:53:31;;;;;;;11.17;7.53;;;11.80;79.00;;;;;;6175890;28;20525;-62
2022/11/26 14:56:40;;;;;;;12.37;8.30;;;11.60;80.50;;;;;;6175772;28;20484;-63
2022/11/26 14:59:59;;;;;;;9.43;7.60;;;11.40;82.20;;;;;;6175895;28;20504;-63
2022/11/26 15:03:18;;;;;;;13.50;9.00;;;11.20;84.20;;;;;;6175607;28;20485;-62
2022/11/26 15:06:27;;;;;;;10.83;8.70;;;11.00;85.70;;;;;;6175993;28;20602;-63
2022/11/26 15:09:30;;;;;;;13.97;9.23;;;10.80;87.50;;;;;;6174310;28;20544;-63
2022/11/26 15:12:35;;;;;;;12.93;8.43;;;10.70;89.10;;;;;;6173536;28;20493;-62
2022/11/26 15:15:49;;;;;;;10.10;8.40;;;10.60;90.50;;;;;;6175418;28;20478;-63
2022/11/26 15:18:55;;;;;;;11.40;7.97;;;10.40;91.30;;;;;;6175904;28;21005;-62
2022/11/26 15:22:00;;;;;;;13.70;8.90;;;10.30;92.00;;;;;;6177067;28;20453;-61
2022/11/26 15:25:04;;;;;;;15.33;8.30;;;10.20;92.70;;;;;;6176667;28;20457;-63
2022/11/26 15:28:18;;;;;;;9.33;7.93;;;10.20;93.60;;;;;;6175493;28;20445;-62
2022/11/26 15:31:21;;;;;;;10.20;8.67;;;10.10;94.20;;;;;;6175781;28;20482;-62
2022/11/26 15:34:27;;;;;;;9.83;8.60;;;10.10;94.70;;;;;;6177198;28;20988;-62
2022/11/26 15:37:30;;;;;;;10.13;9.10;;;10.00;95.10;;;;;;6177968;28;20474;-62
2022/11/26 15:40:45;;;;;;;11.87;9.53;;;10.10;95.60;;;;;;6181166;28;20508;-62
2022/11/26 15:43:50;;;;;;;15.03;11.60;;;10.00;96.20;;;;;;6179010;28;20934;-62
2022/11/26 15:46:56;;;;;;;15.87;12.10;;;9.90;97.50;;;;;;6179212;28;20469;-62
2022/11/26 15:50:01;;;;;;;15.03;12.63;;;9.90;97.70;;;;;;6180325;28;20600;-63
2022/11/26 15:53:07;;;;;;;15.53;11.23;;;9.70;97.90;;;;;;6180974;28;20550;-62
2022/11/26 15:56:18;;;;;;;14.80;12.63;;;9.70;98.40;;;;;;6180079;28;20484;-62
2022/11/26 15:59:23;;;;;;;15.63;12.63;;;9.70;98.70;;;;;;6180235;28;20982;-61
2022/11/26 16:02:29;;;;;;;14.13;11.53;;;9.60;98.90;;;;;;6180238;28;20470;-62
2022/11/26 16:05:37;;;;;;;15.73;11.50;;;9.50;99.10;;;;;;6179197;28;20509;-63
2022/11/26 16:08:58;;;;;;;19.30;13.23;;;9.40;99.50;;;;;;6179969;28;20497;-61
2022/11/26 16:12:01;;;;;;;14.93;12.90;;;9.40;99.90;;;;;;6180229;28;20473;-63
2022/11/26 16:15:19;;;;;;;18.97;14.40;;;9.30;99.90;;;;;;6179916;28;21024;-62